createdAt,value
2023-04-23T00:01:20.659Z,2.40
2023-04-23T00:03:51.349Z,2.60
2023-04-23T00:06:22.561Z,1.87
2023-04-23T00:08:54.479Z,2.40
2023-04-23T00:11:23.088Z,2.60
2023-04-23T00:13:51.772Z,2.27
2023-04-23T00:16:21.563Z,2.10
2023-04-23T00:18:51.387Z,2.33
2023-04-23T00:21:19.836Z,2.33
2023-04-23T00:23:48.250Z,2.10
2023-04-23T00:26:18.649Z,1.77
2023-04-23T00:28:47.022Z,2.20
2023-04-23T00:31:15.670Z,2.10
2023-04-23T00:33:44.219Z,2.20
2023-04-23T00:36:14.153Z,2.33
2023-04-23T00:38:42.639Z,2.40
2023-04-23T00:41:11.216Z,2.00
2023-04-23T00:43:39.625Z,2.53
2023-04-23T00:46:08.535Z,2.30
2023-04-23T00:48:37.533Z,2.30
2023-04-23T00:51:07.381Z,2.03
2023-04-23T00:53:37.193Z,2.60
2023-04-23T00:56:07.307Z,2.20
2023-04-23T00:58:36.259Z,2.03
2023-04-23T01:01:05.145Z,2.27
2023-04-23T01:03:36.875Z,2.47
2023-04-23T01:06:05.741Z,1.90
2023-04-23T01:08:35.849Z,2.10
2023-04-23T01:11:06.689Z,1.97
2023-04-23T01:13:35.836Z,1.87
2023-04-23T01:16:04.314Z,1.80
2023-04-23T01:18:32.681Z,2.50
2023-04-23T01:21:01.947Z,2.77
2023-04-23T01:23:32.917Z,2.17
2023-04-23T01:26:01.462Z,2.40
2023-04-23T01:28:30.949Z,2.33
2023-04-23T01:31:00.732Z,2.30
2023-04-23T01:33:29.829Z,2.00
2023-04-23T01:35:59.018Z,2.60
2023-04-23T01:38:33.182Z,2.37
2023-04-23T01:41:01.344Z,2.27
2023-04-23T01:43:29.948Z,2.60
2023-04-23T01:45:59.561Z,2.20
2023-04-23T01:48:28.039Z,1.90
2023-04-23T01:50:56.487Z,2.50
2023-04-23T01:53:24.585Z,2.17
2023-04-23T01:55:55.276Z,2.30
2023-04-23T01:58:23.920Z,1.93
2023-04-23T02:00:52.231Z,2.30
2023-04-23T02:03:20.590Z,2.50
2023-04-23T02:05:49.816Z,2.30
2023-04-23T02:08:17.966Z,1.90
2023-04-23T02:10:46.191Z,1.87
2023-04-23T02:13:16.019Z,2.00
2023-04-23T02:15:44.483Z,2.03
2023-04-23T02:18:12.851Z,2.50
2023-04-23T02:20:41.651Z,1.90
2023-04-23T02:23:10.268Z,2.10
2023-04-23T02:25:39.538Z,2.10
2023-04-23T02:28:08.473Z,2.50
2023-04-23T02:30:38.207Z,2.37
2023-04-23T02:33:06.864Z,2.57
2023-04-23T02:35:35.041Z,2.37
2023-04-23T02:38:03.272Z,2.77
2023-04-23T02:40:31.588Z,2.57
2023-04-23T02:42:59.770Z,2.40
2023-04-23T02:45:27.969Z,2.23
2023-04-23T02:47:58.088Z,1.77
2023-04-23T02:50:26.287Z,2.33
2023-04-23T02:52:54.448Z,2.27
2023-04-23T02:55:25.316Z,1.60
2023-04-23T02:57:53.549Z,2.13
2023-04-23T03:00:21.775Z,2.60
2023-04-23T03:02:50.070Z,2.03
2023-04-23T03:05:19.803Z,1.93
2023-04-23T03:07:47.993Z,2.53
2023-04-23T03:10:16.144Z,2.43
2023-04-23T03:12:44.308Z,1.97
2023-04-23T03:15:12.916Z,2.50
2023-04-23T03:17:41.106Z,2.10
2023-04-23T03:20:11.722Z,2.33
2023-04-23T03:22:41.425Z,2.23
2023-04-23T03:25:10.337Z,2.47
2023-04-23T03:27:40.568Z,2.97
2023-04-23T03:30:10.184Z,2.57
2023-04-23T03:32:38.472Z,2.37
2023-04-23T03:35:07.457Z,2.10
2023-04-23T03:37:35.626Z,2.70
2023-04-23T03:40:07.875Z,2.03
2023-04-23T03:42:36.233Z,2.37
2023-04-23T03:45:04.818Z,2.47
2023-04-23T03:47:33.229Z,2.17
2023-04-23T03:50:01.559Z,2.00
2023-04-23T03:52:29.763Z,2.17
2023-04-23T03:54:58.092Z,2.10
2023-04-23T03:57:27.828Z,2.10
2023-04-23T03:59:56.021Z,2.47
2023-04-23T04:02:24.692Z,2.17
2023-04-23T04:04:55.123Z,2.40
2023-04-23T04:07:23.659Z,2.40
2023-04-23T04:09:51.837Z,2.10
2023-04-23T04:12:19.969Z,2.73
2023-04-23T04:14:49.644Z,2.03
2023-04-23T04:17:17.830Z,2.43
2023-04-23T04:19:46.388Z,2.70
2023-04-23T04:22:14.764Z,2.50
2023-04-23T04:24:43.996Z,2.23
2023-04-23T04:27:12.428Z,2.00
2023-04-23T04:29:41.304Z,2.03
2023-04-23T04:32:11.550Z,2.47
2023-04-23T04:34:40.492Z,2.43
2023-04-23T04:37:10.160Z,2.17
2023-04-23T04:39:38.431Z,2.10
2023-04-23T04:42:07.466Z,2.63
2023-04-23T04:44:37.653Z,2.20
2023-04-23T04:47:07.335Z,2.63
2023-04-23T04:49:37.269Z,2.13
2023-04-23T04:52:05.533Z,1.93
2023-04-23T04:54:33.760Z,2.40
2023-04-23T04:57:02.488Z,2.73
2023-04-23T04:59:30.771Z,2.10
2023-04-23T05:01:59.863Z,2.37
2023-04-23T05:04:28.220Z,2.90
2023-04-23T05:06:57.822Z,2.70
2023-04-23T05:09:26.831Z,2.43
2023-04-23T05:11:55.066Z,2.90
2023-04-23T05:14:23.346Z,2.67
2023-04-23T05:16:51.583Z,2.30
2023-04-23T05:19:19.854Z,2.53
2023-04-23T05:21:48.121Z,2.50
2023-04-23T05:24:17.801Z,2.20
2023-04-23T05:26:46.003Z,2.90
2023-04-23T05:29:18.038Z,2.37
2023-04-23T05:31:46.859Z,2.83
2023-04-23T05:34:15.123Z,2.47
2023-04-23T05:36:43.262Z,3.13
2023-04-23T05:39:11.590Z,2.70
2023-04-23T05:41:41.291Z,2.90
2023-04-23T05:44:09.588Z,3.03
2023-04-23T05:46:38.898Z,2.90
2023-04-23T05:49:07.259Z,3.00
2023-04-23T05:51:35.433Z,3.10
2023-04-23T05:54:03.672Z,3.77
2023-04-23T05:56:31.882Z,3.43
2023-04-23T05:59:01.554Z,3.00
2023-04-23T06:01:30.057Z,2.80
2023-04-23T06:03:58.847Z,3.00
2023-04-23T06:06:28.185Z,2.50
2023-04-23T06:08:57.865Z,2.53
2023-04-23T06:11:26.241Z,3.33
2023-04-23T06:13:56.732Z,2.73
2023-04-23T06:16:26.533Z,2.90
2023-04-23T06:18:56.352Z,3.50
2023-04-23T06:21:24.893Z,3.27
2023-04-23T06:23:53.138Z,2.93
2023-04-23T06:26:21.416Z,3.30
2023-04-23T06:28:49.694Z,2.73
2023-04-23T06:31:18.011Z,3.10
2023-04-23T06:33:47.620Z,2.60
2023-04-23T06:36:15.864Z,2.90
2023-04-23T06:38:44.761Z,2.80
2023-04-23T06:41:14.068Z,2.90
2023-04-23T06:43:42.295Z,3.33
2023-04-23T06:46:10.818Z,3.30
2023-04-23T06:48:39.005Z,2.57
2023-04-23T06:51:08.586Z,3.10
2023-04-23T06:53:36.746Z,2.90
2023-04-23T06:56:05.054Z,2.43
2023-04-23T06:58:33.225Z,2.50
2023-04-23T07:01:04.353Z,2.53
2023-04-23T07:03:32.896Z,2.80
2023-04-23T07:06:01.554Z,2.47
2023-04-23T07:08:31.349Z,2.97
2023-04-23T07:10:59.835Z,2.27
2023-04-23T07:13:28.178Z,2.40
2023-04-23T07:15:56.481Z,2.60
2023-04-23T07:18:25.302Z,2.87
2023-04-23T07:20:53.620Z,3.20
2023-04-23T07:23:22.475Z,2.57
2023-04-23T07:25:56.331Z,2.63
2023-04-23T07:28:24.599Z,2.67
2023-04-23T07:30:52.998Z,2.77
2023-04-23T07:33:21.761Z,3.20
2023-04-23T07:35:50.242Z,3.25
2023-04-23T07:38:18.646Z,3.20
2023-04-23T07:40:47.707Z,2.80
2023-04-23T07:43:17.424Z,2.45
2023-04-23T07:45:45.670Z,3.17
2023-04-23T07:48:13.940Z,2.67
2023-04-23T07:50:42.205Z,2.50
2023-04-23T07:53:10.436Z,3.20
2023-04-23T07:55:38.614Z,2.75
2023-04-23T07:58:06.810Z,2.70
2023-04-23T08:00:37.398Z,2.95
2023-04-23T08:03:06.314Z,2.40
2023-04-23T08:05:34.748Z,2.78
2023-04-23T08:08:02.969Z,2.47
2023-04-23T08:10:31.149Z,2.60
2023-04-23T08:12:59.335Z,2.85
2023-04-23T08:15:27.646Z,2.95
2023-04-23T08:17:57.234Z,2.13
2023-04-23T08:20:25.393Z,2.88
2023-04-23T08:22:54.252Z,2.70
2023-04-23T08:25:22.485Z,2.75
2023-04-23T08:27:50.798Z,2.72
2023-04-23T08:30:19.022Z,2.70
2023-04-23T08:32:51.003Z,2.95
2023-04-23T08:35:21.108Z,2.90
2023-04-23T08:37:49.465Z,2.63
2023-04-23T08:40:18.139Z,2.85
2023-04-23T08:42:51.210Z,2.67
2023-04-23T08:45:20.191Z,2.63
2023-04-23T08:47:48.438Z,2.25
2023-04-23T08:50:18.278Z,2.75
2023-04-23T08:52:54.455Z,2.60
2023-04-23T08:55:24.248Z,2.58
2023-04-23T08:57:53.445Z,2.65
2023-04-23T09:00:24.120Z,3.15
2023-04-23T09:02:52.693Z,3.50
2023-04-23T09:05:21.458Z,3.30
2023-04-23T09:07:51.299Z,2.63
2023-04-23T09:10:19.717Z,3.13
2023-04-23T09:12:48.439Z,2.92
2023-04-23T09:15:17.002Z,2.42
2023-04-23T09:17:47.351Z,2.90
2023-04-23T09:20:16.459Z,2.33
2023-04-23T09:22:47.323Z,1.90
2023-04-23T09:25:19.774Z,2.75
2023-04-23T09:27:49.038Z,2.40
2023-04-23T09:30:18.238Z,2.60
2023-04-23T09:32:48.123Z,2.40
2023-04-23T09:35:20.054Z,2.67
2023-04-23T09:37:50.457Z,2.45
2023-04-23T09:40:22.178Z,2.70
2023-04-23T09:42:52.757Z,2.65
2023-04-23T09:45:22.777Z,2.58
2023-04-23T09:47:53.188Z,2.90
2023-04-23T09:50:21.982Z,2.28
2023-04-23T09:52:57.321Z,2.05
2023-04-23T09:55:38.909Z,1.95
2023-04-23T09:58:08.510Z,2.28
2023-04-23T10:00:38.437Z,2.25
2023-04-23T10:03:08.952Z,2.63
2023-04-23T10:05:59.566Z,2.30
2023-04-23T10:08:29.175Z,2.50
2023-04-23T10:11:09.983Z,2.10
2023-04-23T10:13:47.634Z,2.80
2023-04-23T10:16:22.435Z,2.30
2023-04-23T10:18:55.570Z,2.47
2023-04-23T10:21:32.125Z,2.63
2023-04-23T10:24:07.397Z,2.42
2023-04-23T10:26:40.346Z,2.25
2023-04-23T10:29:14.887Z,2.40
2023-04-23T10:31:44.099Z,2.60
2023-04-23T10:34:12.684Z,2.10
2023-04-23T10:36:41.078Z,3.60
2023-04-23T10:39:10.618Z,2.20
2023-04-23T10:41:42.463Z,1.60
2023-04-23T10:44:15.860Z,2.13
2023-04-23T10:46:53.461Z,1.80
2023-04-23T10:49:24.524Z,1.65
2023-04-23T10:52:18.467Z,1.58
2023-04-23T10:54:51.001Z,2.00
2023-04-23T10:57:20.737Z,1.92
2023-04-23T10:59:54.008Z,2.22
2023-04-23T11:02:24.679Z,2.30
2023-04-23T11:04:57.705Z,1.95
2023-04-23T11:07:31.288Z,1.52
2023-04-23T11:10:01.025Z,2.13
2023-04-23T11:12:34.383Z,1.80
2023-04-23T11:15:12.650Z,1.80
2023-04-23T11:18:06.133Z,1.67
2023-04-23T11:20:34.637Z,1.77
2023-04-23T11:23:02.801Z,1.65
2023-04-23T11:25:31.369Z,1.40
2023-04-23T11:28:01.519Z,1.70
2023-04-23T11:30:31.365Z,1.77
2023-04-23T11:33:01.376Z,1.98
2023-04-23T11:35:32.462Z,1.80
2023-04-23T11:38:00.624Z,1.48
2023-04-23T11:40:31.148Z,1.55
2023-04-23T11:43:00.893Z,1.70
2023-04-23T11:45:30.782Z,1.48
2023-04-23T11:48:01.826Z,1.75
2023-04-23T11:50:33.314Z,1.60
2023-04-23T11:53:06.720Z,2.03
2023-04-23T11:55:34.990Z,1.65
2023-04-23T11:58:04.796Z,1.50
2023-04-23T12:00:33.050Z,1.70
2023-04-23T12:03:02.915Z,1.83
2023-04-23T12:05:33.115Z,1.85
2023-04-23T12:08:12.548Z,1.35
2023-04-23T12:10:45.745Z,1.60
2023-04-23T12:13:19.657Z,1.50
2023-04-23T12:15:48.961Z,1.40
2023-04-23T12:18:17.953Z,1.67
2023-04-23T12:20:47.205Z,1.55
2023-04-23T12:23:16.117Z,0.98
2023-04-23T12:25:44.500Z,1.77
2023-04-23T12:28:12.761Z,1.65
2023-04-23T12:30:46.261Z,1.48
2023-04-23T12:33:15.104Z,1.60
2023-04-23T12:35:44.420Z,1.50
2023-04-23T12:38:24.032Z,1.83
2023-04-23T12:40:52.344Z,1.65
2023-04-23T12:43:20.595Z,1.50
2023-04-23T12:45:51.342Z,1.70
2023-04-23T12:48:19.869Z,1.83
2023-04-23T12:50:48.689Z,1.35
2023-04-23T12:53:17.011Z,1.48
2023-04-23T12:55:46.002Z,1.92
2023-04-23T12:58:14.442Z,1.50
2023-04-23T13:00:42.693Z,1.55
2023-04-23T13:03:14.224Z,1.75
2023-04-23T13:05:42.679Z,1.73
2023-04-23T13:08:10.913Z,1.63
2023-04-23T13:10:39.160Z,1.58
2023-04-23T13:13:07.361Z,1.27
2023-04-23T13:15:35.600Z,1.45
2023-04-23T13:18:03.973Z,1.52
2023-04-23T13:20:33.607Z,1.48
2023-04-23T13:23:03.172Z,1.55
2023-04-23T13:25:31.602Z,1.60
2023-04-23T13:28:00.809Z,1.83
2023-04-23T13:30:29.049Z,1.60
2023-04-23T13:32:59.336Z,1.38
2023-04-23T13:35:28.079Z,1.83
2023-04-23T13:37:57.828Z,1.70
2023-04-23T13:40:26.117Z,1.67
2023-04-23T13:42:55.122Z,1.80
2023-04-23T13:45:23.627Z,1.70
2023-04-23T13:47:51.837Z,2.00
2023-04-23T13:50:20.154Z,1.58
2023-04-23T13:52:48.328Z,1.77
2023-04-23T13:55:18.136Z,1.20
2023-04-23T13:57:46.473Z,1.90
2023-04-23T14:00:15.693Z,1.52
2023-04-23T14:02:44.024Z,1.73
2023-04-23T14:05:12.246Z,1.80
2023-04-23T14:07:40.358Z,1.70
2023-04-23T14:10:09.820Z,1.70
2023-04-23T14:12:39.993Z,1.60
2023-04-23T14:15:09.735Z,2.03
2023-04-23T14:17:39.498Z,1.80
2023-04-23T14:20:09.418Z,2.00
2023-04-23T14:22:37.952Z,2.17
2023-04-23T14:25:10.925Z,2.08
2023-04-23T14:27:46.334Z,1.80
2023-04-23T14:30:20.374Z,1.90
2023-04-23T14:32:50.423Z,1.80
2023-04-23T14:35:24.543Z,1.45
2023-04-23T14:37:57.707Z,1.70
2023-04-23T14:40:26.017Z,1.80
2023-04-23T14:42:59.307Z,1.92
2023-04-23T14:45:33.138Z,1.95
2023-04-23T14:48:04.762Z,2.10
2023-04-23T14:50:32.964Z,1.73
2023-04-23T14:53:03.473Z,2.00
2023-04-23T14:55:34.846Z,2.22
2023-04-23T14:58:04.394Z,2.17
2023-04-23T15:00:32.547Z,1.77
2023-04-23T15:03:02.870Z,2.20
2023-04-23T15:05:31.331Z,1.77
2023-04-23T15:07:59.501Z,1.90
2023-04-23T15:10:27.745Z,2.28
2023-04-23T15:13:03.478Z,1.98
2023-04-23T15:15:45.212Z,2.40
2023-04-23T15:18:14.898Z,2.17
2023-04-23T15:20:43.171Z,2.35
2023-04-23T15:23:12.025Z,2.42
2023-04-23T15:25:40.785Z,2.33
2023-04-23T15:28:09.237Z,2.63
2023-04-23T15:30:39.894Z,2.03
2023-04-23T15:33:08.159Z,1.92
2023-04-23T15:35:36.366Z,2.28
2023-04-23T15:38:04.605Z,1.90
2023-04-23T15:40:33.450Z,2.15
2023-04-23T15:43:01.620Z,1.85
2023-04-23T15:45:29.896Z,2.00
2023-04-23T15:47:59.513Z,1.45
2023-04-23T15:50:27.726Z,2.20
2023-04-23T15:52:58.394Z,2.08
2023-04-23T15:55:26.887Z,2.00
2023-04-23T15:57:55.072Z,2.00
2023-04-23T16:00:23.235Z,2.00
2023-04-23T16:02:51.701Z,2.00
2023-04-23T16:05:23.489Z,2.30
2023-04-23T16:07:51.760Z,2.53
2023-04-23T16:10:20.205Z,2.40
2023-04-23T16:12:48.924Z,2.20
2023-04-23T16:15:17.126Z,1.95
2023-04-23T16:17:45.464Z,1.52
2023-04-23T16:20:14.006Z,2.10
2023-04-23T16:22:44.749Z,1.70
2023-04-23T16:25:13.063Z,1.80
2023-04-23T16:27:41.381Z,2.30
2023-04-23T16:30:10.830Z,1.92
2023-04-23T16:32:39.588Z,1.90
2023-04-23T16:35:08.496Z,1.90
2023-04-23T16:37:36.680Z,2.28
2023-04-23T16:40:07.625Z,1.60
2023-04-23T16:42:35.805Z,2.28
2023-04-23T16:45:04.022Z,2.67
2023-04-23T16:47:32.370Z,2.40
2023-04-23T16:50:02.776Z,2.25
2023-04-23T16:52:31.165Z,2.08
2023-04-23T16:54:59.415Z,2.42
2023-04-23T16:57:29.403Z,1.75
2023-04-23T16:59:58.008Z,1.80
2023-04-23T17:02:26.417Z,1.88
2023-04-23T17:04:55.277Z,1.52
2023-04-23T17:07:23.946Z,1.45
2023-04-23T17:09:52.218Z,1.20
2023-04-23T17:12:20.494Z,1.57
2023-04-23T17:14:50.148Z,1.00
2023-04-23T17:17:18.421Z,1.40
2023-04-23T17:19:46.919Z,0.90
2023-04-23T17:22:15.122Z,0.70
2023-04-23T17:24:43.665Z,1.17
2023-04-23T17:27:12.149Z,1.30
2023-04-23T17:29:40.408Z,1.27
2023-04-23T17:32:10.066Z,0.80
2023-04-23T17:34:38.454Z,0.57
2023-04-23T17:37:06.690Z,0.70
2023-04-23T17:39:34.914Z,0.63
2023-04-23T17:42:03.230Z,0.70
2023-04-23T17:44:31.726Z,0.80
2023-04-23T17:46:59.942Z,0.73
2023-04-23T17:49:29.805Z,0.87
2023-04-23T17:51:58.163Z,1.00
2023-04-23T17:54:56.900Z,1.03
2023-04-23T17:57:25.191Z,0.90
2023-04-23T17:59:53.433Z,1.10
2023-04-23T18:02:21.987Z,0.70
2023-04-23T18:04:51.766Z,0.90
2023-04-23T18:07:20.466Z,0.67
2023-04-23T18:09:49.035Z,0.70
2023-04-23T18:12:17.532Z,0.50
2023-04-23T18:14:45.811Z,0.73
2023-04-23T18:17:17.534Z,0.77
2023-04-23T18:19:45.830Z,0.70
2023-04-23T18:22:15.927Z,0.60
2023-04-23T18:24:44.483Z,0.80
2023-04-23T18:27:12.763Z,0.70
2023-04-23T18:29:41.865Z,1.00
2023-04-23T18:32:12.336Z,0.87
2023-04-23T18:34:44.399Z,0.80
2023-04-23T18:37:33.120Z,0.90
2023-04-23T18:40:01.770Z,0.90
2023-04-23T18:42:30.129Z,0.70
2023-04-23T18:44:58.397Z,0.70
2023-04-23T18:47:32.334Z,0.73
2023-04-23T18:50:03.451Z,0.90
2023-04-23T18:52:33.132Z,0.57
2023-04-23T18:55:01.421Z,0.70
2023-04-23T18:57:29.708Z,0.87
2023-04-23T18:59:58.020Z,0.40
2023-04-23T19:02:35.076Z,0.83
2023-04-23T19:05:04.573Z,0.50
2023-04-23T19:07:37.250Z,0.60
2023-04-23T19:10:06.128Z,0.60
2023-04-23T19:12:34.307Z,0.80
2023-04-23T19:15:02.704Z,0.87
2023-04-23T19:17:31.022Z,0.70
2023-04-23T19:19:59.233Z,0.60
2023-04-23T19:22:27.462Z,0.50
2023-04-23T19:25:16.354Z,0.70
2023-04-23T19:27:44.893Z,0.93
2023-04-23T19:30:14.020Z,0.60
2023-04-23T19:32:42.488Z,0.90
2023-04-23T19:35:11.992Z,0.70
2023-04-23T19:37:40.246Z,0.70
2023-04-23T19:40:11.038Z,0.60
2023-04-23T19:42:39.729Z,0.70
2023-04-23T19:45:08.985Z,0.80
2023-04-23T19:47:40.283Z,0.70
2023-04-23T19:50:09.889Z,0.70
2023-04-23T19:52:38.280Z,0.80
2023-04-23T19:55:08.131Z,0.60
2023-04-23T19:57:37.917Z,0.70
2023-04-23T20:00:07.861Z,1.03
2023-04-23T20:02:36.926Z,0.60
2023-04-23T20:05:06.037Z,0.63
2023-04-23T20:07:34.955Z,0.50
2023-04-23T20:10:03.870Z,0.80
2023-04-23T20:12:33.484Z,0.63
2023-04-23T20:15:03.300Z,0.60
2023-04-23T20:17:31.758Z,0.90
2023-04-23T20:20:02.122Z,1.00
2023-04-23T20:22:30.968Z,0.90
2023-04-23T20:24:59.290Z,1.00
2023-04-23T20:27:28.088Z,0.77
2023-04-23T20:29:56.492Z,1.13
2023-04-23T20:32:26.075Z,0.90
2023-04-23T20:34:54.523Z,0.70
2023-04-23T20:37:22.902Z,0.60
2023-04-23T20:39:51.252Z,0.63
2023-04-23T20:42:19.603Z,0.73
2023-04-23T20:44:49.079Z,0.80
2023-04-23T20:47:17.992Z,0.53
2023-04-23T20:49:47.621Z,0.60
2023-04-23T20:52:16.575Z,0.90
2023-04-23T20:54:44.944Z,0.90
2023-04-23T20:57:13.271Z,0.70
2023-04-23T20:59:41.879Z,1.00
2023-04-23T21:02:13.049Z,0.50
2023-04-23T21:04:41.455Z,0.77
2023-04-23T21:07:11.227Z,0.87
2023-04-23T21:09:39.387Z,0.97
2023-04-23T21:12:07.777Z,0.80
2023-04-23T21:14:36.354Z,0.87
2023-04-23T21:17:04.570Z,0.70
2023-04-23T21:19:32.716Z,0.93
2023-04-23T21:22:00.954Z,0.90
2023-04-23T21:24:30.579Z,0.70
2023-04-23T21:26:58.825Z,0.80
2023-04-23T21:29:27.235Z,0.60
2023-04-23T21:31:55.683Z,0.83
2023-04-23T21:34:24.116Z,0.70
2023-04-23T21:36:52.386Z,0.90
2023-04-23T21:39:20.552Z,1.00
2023-04-23T21:41:50.336Z,1.27
2023-04-23T21:44:18.510Z,1.00
2023-04-23T21:46:46.860Z,1.30
2023-04-23T21:49:15.116Z,1.40
2023-04-23T21:51:43.432Z,1.00
2023-04-23T21:54:11.625Z,0.60
2023-04-23T21:56:40.023Z,0.70
2023-04-23T21:59:09.739Z,0.90
2023-04-23T22:01:38.036Z,0.77
2023-04-23T22:04:06.465Z,1.00
2023-04-23T22:06:35.301Z,1.00
2023-04-23T22:09:03.763Z,0.80
2023-04-23T22:11:32.013Z,1.13
2023-04-23T22:14:00.615Z,0.73
2023-04-23T22:16:30.430Z,0.73
2023-04-23T22:18:58.733Z,0.87
2023-04-23T22:21:26.975Z,0.90
2023-04-23T22:23:55.256Z,1.03
2023-04-23T22:26:23.390Z,0.87
2023-04-23T22:28:51.598Z,1.00
2023-04-23T22:31:19.825Z,0.70
2023-04-23T22:33:49.442Z,1.00
2023-04-23T22:36:18.144Z,0.87
2023-04-23T22:38:46.610Z,0.70
2023-04-23T22:41:14.788Z,0.90
2023-04-23T22:43:42.902Z,0.70
2023-04-23T22:46:11.229Z,0.73
2023-04-23T22:48:45.132Z,0.80
2023-04-23T22:51:15.611Z,0.90
2023-04-23T22:53:43.771Z,0.90
2023-04-23T22:56:12.037Z,0.90
2023-04-23T22:58:40.521Z,0.80
2023-04-23T23:01:08.704Z,1.40
2023-04-23T23:03:37.026Z,1.50
2023-04-23T23:06:05.693Z,1.07
2023-04-23T23:08:35.344Z,1.33
2023-04-23T23:11:03.539Z,1.00
2023-04-23T23:13:32.350Z,0.80
2023-04-23T23:16:04.753Z,0.90
2023-04-23T23:18:32.972Z,1.10
2023-04-23T23:21:01.218Z,0.90
2023-04-23T23:23:29.358Z,0.90
2023-04-23T23:26:00.040Z,0.80
2023-04-23T23:28:28.591Z,0.80
2023-04-23T23:30:57.959Z,1.13
2023-04-23T23:33:27.365Z,1.17
2023-04-23T23:35:55.810Z,1.23
2023-04-23T23:38:24.058Z,0.90
2023-04-23T23:40:52.249Z,1.33
2023-04-23T23:43:21.776Z,0.70
2023-04-23T23:45:50.083Z,1.10
2023-04-23T23:48:18.723Z,0.97
2023-04-23T23:50:47.095Z,0.83
2023-04-23T23:53:15.192Z,1.00
2023-04-23T23:55:43.387Z,1.20
2023-04-23T23:58:11.743Z,1.13
